createdAt,value
2022-08-08T00:00:53.524Z,0.40
2022-08-08T00:06:01.070Z,0.30
2022-08-08T00:11:13.127Z,0.30
2022-08-08T00:16:24.440Z,0.30
2022-08-08T00:21:39.741Z,0.40
2022-08-08T00:26:51.579Z,0.40
2022-08-08T00:32:21.455Z,0.40
2022-08-08T00:37:47.190Z,0.30
2022-08-08T00:43:55.953Z,0.30
2022-08-08T00:49:50.396Z,0.23
2022-08-08T00:55:55.971Z,0.27
2022-08-08T01:01:15.751Z,0.40
2022-08-08T01:07:08.070Z,0.30
2022-08-08T01:12:48.110Z,0.40
2022-08-08T01:18:53.208Z,0.30
2022-08-08T01:24:37.745Z,0.40
2022-08-08T01:30:17.253Z,0.30
2022-08-08T01:36:01.219Z,0.40
2022-08-08T01:41:19.700Z,0.30
2022-08-08T01:46:41.021Z,0.20
2022-08-08T01:53:01.785Z,0.50
2022-08-08T01:58:11.786Z,0.30
2022-08-08T02:03:56.209Z,0.40
2022-08-08T02:08:55.982Z,0.20
2022-08-08T02:14:09.493Z,0.40
2022-08-08T02:19:41.960Z,0.30
2022-08-08T02:24:54.388Z,0.40
2022-08-08T02:30:21.343Z,0.30
2022-08-08T02:36:05.279Z,0.30
2022-08-08T02:41:59.133Z,0.40
2022-08-08T02:47:47.019Z,0.30
2022-08-08T02:53:24.075Z,0.30
2022-08-08T02:59:01.267Z,0.30
2022-08-08T03:05:04.439Z,0.33
2022-08-08T03:10:37.002Z,0.30
2022-08-08T03:16:35.388Z,0.30
2022-08-08T03:21:58.450Z,0.30
2022-08-08T03:27:11.180Z,0.30
2022-08-08T03:32:34.365Z,0.33
2022-08-08T03:38:55.095Z,0.30
2022-08-08T03:43:15.750Z,0.30
2022-08-08T03:49:09.168Z,0.30
2022-08-08T03:53:47.683Z,0.20
2022-08-08T03:58:54.463Z,0.30
2022-08-08T04:04:01.997Z,0.50
2022-08-08T04:09:17.748Z,0.30
2022-08-08T04:14:33.946Z,0.40
2022-08-08T04:19:40.690Z,0.27
2022-08-08T04:24:48.689Z,0.30
2022-08-08T04:30:17.374Z,0.30
2022-08-08T04:35:20.323Z,0.40
2022-08-08T04:40:27.385Z,0.40
2022-08-08T04:45:34.934Z,0.50
2022-08-08T04:50:40.306Z,0.30
2022-08-08T04:55:56.141Z,0.40
2022-08-08T05:01:09.075Z,0.40
2022-08-08T05:06:28.180Z,0.40
2022-08-08T05:11:38.867Z,0.40
2022-08-08T05:16:52.754Z,0.30
2022-08-08T05:22:03.670Z,0.40
2022-08-08T05:27:09.925Z,0.47
2022-08-08T05:32:16.747Z,0.40
2022-08-08T05:37:39.076Z,0.50
2022-08-08T05:42:52.768Z,0.50
2022-08-08T05:48:09.075Z,0.40
2022-08-08T05:53:23.034Z,0.50
2022-08-08T05:58:57.033Z,0.50
2022-08-08T06:04:08.592Z,0.40
2022-08-08T06:09:59.012Z,0.40
2022-08-08T06:14:48.750Z,0.50
2022-08-08T06:19:55.646Z,0.40
2022-08-08T06:24:59.840Z,0.47
2022-08-08T06:30:07.330Z,0.50
2022-08-08T06:36:07.070Z,0.60
2022-08-08T06:40:54.030Z,0.60
2022-08-08T06:46:02.362Z,0.63
2022-08-08T06:51:08.492Z,0.50
2022-08-08T06:56:16.706Z,0.40
2022-08-08T07:02:16.624Z,0.40
2022-08-08T07:06:56.475Z,0.40
2022-08-08T07:12:03.824Z,0.30
2022-08-08T07:17:31.592Z,0.40
2022-08-08T07:22:54.803Z,0.50
2022-08-08T07:28:11.500Z,0.47
2022-08-08T07:33:24.549Z,0.50
2022-08-08T07:38:31.085Z,0.40
2022-08-08T07:43:42.119Z,0.40
2022-08-08T07:48:55.484Z,0.40
2022-08-08T07:54:12.517Z,0.40
2022-08-08T07:59:39.384Z,0.40
2022-08-08T08:04:53.257Z,0.50
2022-08-08T08:10:02.399Z,0.50
2022-08-08T08:15:08.529Z,0.50
2022-08-08T08:20:20.937Z,0.47
2022-08-08T08:25:42.281Z,0.60
2022-08-08T08:30:52.207Z,0.30
2022-08-08T08:36:21.077Z,0.60
2022-08-08T08:41:24.432Z,0.57
2022-08-08T08:46:32.686Z,0.60
2022-08-08T08:51:51.171Z,0.30
2022-08-08T08:56:59.294Z,0.50
2022-08-08T09:02:08.835Z,0.60
2022-08-08T09:07:19.775Z,0.50
2022-08-08T09:12:27.930Z,0.60
2022-08-08T09:17:41.556Z,0.50
2022-08-08T09:22:58.862Z,0.47
2022-08-08T09:28:05.185Z,0.70
2022-08-08T09:33:55.643Z,0.60
2022-08-08T09:38:53.266Z,0.40
2022-08-08T09:44:15.200Z,0.50
2022-08-08T09:49:42.840Z,0.40
2022-08-08T09:54:46.696Z,0.50
2022-08-08T10:00:29.898Z,0.60
2022-08-08T10:05:20.026Z,0.60
2022-08-08T10:10:30.374Z,0.60
2022-08-08T10:15:39.801Z,0.60
2022-08-08T10:20:57.703Z,0.50
2022-08-08T10:26:05.224Z,0.40
2022-08-08T10:31:50.009Z,0.40
2022-08-08T10:36:54.797Z,0.40
2022-08-08T10:42:16.650Z,0.30
2022-08-08T10:47:22.109Z,0.40
2022-08-08T10:52:31.031Z,0.30
2022-08-08T10:57:50.079Z,0.40
2022-08-08T11:02:56.909Z,0.40
2022-08-08T11:08:31.650Z,0.23
2022-08-08T11:13:28.937Z,0.40
2022-08-08T11:18:36.398Z,0.40
2022-08-08T11:23:42.701Z,0.40
2022-08-08T11:28:47.260Z,0.30
2022-08-08T11:34:01.752Z,0.40
2022-08-08T11:39:11.019Z,0.40
2022-08-08T11:44:17.005Z,0.33
2022-08-08T11:49:33.987Z,0.30
2022-08-08T11:54:46.678Z,0.30
2022-08-08T12:00:00.525Z,0.30
2022-08-08T12:05:17.272Z,0.40
2022-08-08T12:10:22.461Z,0.40
2022-08-08T12:15:41.821Z,0.40
2022-08-08T12:20:48.607Z,0.33
2022-08-08T12:25:55.068Z,0.50
2022-08-08T12:31:07.634Z,0.30
2022-08-08T12:36:16.411Z,0.37
2022-08-08T12:41:33.584Z,0.50
2022-08-08T12:46:38.615Z,0.40
2022-08-08T12:51:49.775Z,0.50
2022-08-08T12:56:57.931Z,0.33
2022-08-08T13:02:02.644Z,0.53
2022-08-08T13:07:16.775Z,0.40
2022-08-08T13:12:29.034Z,0.60
2022-08-08T13:18:09.970Z,0.50
2022-08-08T13:23:30.992Z,0.50
2022-08-08T13:28:32.229Z,0.50
2022-08-08T13:33:42.450Z,0.50
2022-08-08T13:38:48.265Z,0.67
2022-08-08T13:43:51.982Z,0.50
2022-08-08T13:49:12.327Z,0.50
2022-08-08T13:54:31.408Z,0.80
2022-08-08T13:59:39.490Z,0.50
2022-08-08T14:04:54.523Z,0.70
2022-08-08T14:10:04.849Z,0.60
2022-08-08T14:15:31.540Z,0.50
2022-08-08T14:20:57.814Z,0.63
2022-08-08T14:26:11.007Z,0.60
2022-08-08T14:31:20.481Z,0.60
2022-08-08T14:36:41.405Z,0.60
2022-08-08T14:42:03.395Z,0.90
2022-08-08T14:47:17.159Z,0.90
2022-08-08T14:52:25.119Z,0.80
2022-08-08T14:58:06.441Z,0.60
2022-08-08T15:03:14.178Z,0.57
2022-08-08T15:08:22.356Z,0.60
2022-08-08T19:58:18.911Z,0.60
2022-08-08T20:04:02.093Z,0.57
2022-08-08T20:08:48.646Z,0.50
2022-08-08T20:14:32.884Z,0.40
2022-08-08T20:26:27.519Z,0.70
2022-08-08T20:32:08.066Z,0.60
2022-08-08T20:36:58.641Z,0.60
2022-08-08T20:42:03.655Z,0.73
